Time,TemperatureF,DewpointF,PressureIn,WindDirection,WindDirectionDegrees,WindSpeedMPH,WindSpeedGustMPH,Humidity,HourlyPrecipIn,Conditions,Clouds,dailyrainin,SoftwareType,DateUTC
2013-06-24 00:01:00,75.2,64.8,29.95,North,0,1.3,1.8,70,0.00,,,0.00,WUHU216HW,2013-06-24 04:01:00,
2013-06-24 00:06:00,74.9,64.4,29.96,North,0,1.1,1.8,70,0.00,,,0.00,WUHU216HW,2013-06-24 04:06:00,
2013-06-24 00:11:00,74.5,64.5,29.97,SSE,158,1.1,1.8,71,0.00,,,0.00,WUHU216HW,2013-06-24 04:11:00,
2013-06-24 00:16:00,74.3,64.4,29.96,South,180,0.0,1.8,71,0.00,,,0.00,WUHU216HW,2013-06-24 04:16:00,
2013-06-24 00:21:00,74.2,64.2,29.97,South,180,0.0,1.1,71,0.00,,,0.00,WUHU216HW,2013-06-24 04:21:00,
2013-06-24 00:26:00,73.8,63.9,29.97,SE,135,1.3,1.6,71,0.00,,,0.00,WUHU216HW,2013-06-24 04:26:00,
2013-06-24 00:31:00,73.4,63.9,29.97,SE,135,0.0,1.6,72,0.00,,,0.00,WUHU216HW,2013-06-24 04:31:00,
2013-06-24 00:36:00,73.3,63.7,29.97,North,0,1.3,1.6,72,0.00,,,0.00,WUHU216HW,2013-06-24 04:36:00,
2013-06-24 00:41:00,72.9,63.8,29.97,North,0,0.4,2.0,73,0.00,,,0.00,WUHU216HW,2013-06-24 04:41:00,
2013-06-24 00:46:00,72.7,64.0,29.97,SE,135,1.3,2.0,74,0.00,,,0.00,WUHU216HW,2013-06-24 04:46:00,
2013-06-24 00:51:00,72.4,64.0,29.97,SE,135,1.8,2.0,75,0.00,,,0.00,WUHU216HW,2013-06-24 04:51:00,
2013-06-24 00:58:00,72.2,63.5,29.97,ESE,113,0.4,2.0,74,0.00,,,0.00,WUHU216HW,2013-06-24 04:58:00,
2013-06-24 01:03:00,72.0,63.3,29.98,SW,225,1.8,1.8,74,0.00,,,0.00,WUHU216HW,2013-06-24 05:03:00,
2013-06-24 01:08:00,72.0,63.3,29.99,WSW,248,1.1,2.5,74,0.00,,,0.00,WUHU216HW,2013-06-24 05:08:00,
2013-06-24 01:13:00,72.0,63.6,29.99,SW,225,1.8,3.1,75,0.00,,,0.00,WUHU216HW,2013-06-24 05:13:00,
2013-06-24 01:18:00,72.0,63.6,29.99,SW,225,1.8,3.1,75,0.00,,,0.00,WUHU216HW,2013-06-24 05:18:00,
2013-06-24 01:23:00,72.0,64.0,29.99,WSW,248,2.9,3.4,76,0.00,,,0.00,WUHU216HW,2013-06-24 05:23:00,
2013-06-24 01:28:00,72.2,64.2,29.99,SSW,203,1.8,3.4,76,0.00,,,0.00,WUHU216HW,2013-06-24 05:28:00,
2013-06-24 01:34:00,72.4,64.7,29.99,SSW,203,2.5,3.1,77,0.00,,,0.00,WUHU216HW,2013-06-24 05:34:00,
2013-06-24 01:39:00,72.4,64.7,29.99,SSW,203,3.4,3.8,77,0.00,,,0.00,WUHU216HW,2013-06-24 05:39:00,
2013-06-24 01:45:00,72.4,64.7,29.99,SW,225,2.5,3.8,77,0.00,,,0.00,WUHU216HW,2013-06-24 05:45:00,
2013-06-24 01:50:00,72.4,64.7,29.99,SSW,203,2.5,3.8,77,0.00,,,0.00,WUHU216HW,2013-06-24 05:50:00,
2013-06-24 01:55:00,72.4,64.7,29.99,SW,225,1.1,3.8,77,0.00,,,0.00,WUHU216HW,2013-06-24 05:55:00,
2013-06-24 02:00:00,72.4,64.4,29.99,SW,225,0.9,2.5,76,0.00,,,0.00,WUHU216HW,2013-06-24 06:00:00,
2013-06-24 02:06:00,72.4,64.4,30.00,SSW,203,1.6,2.5,76,0.00,,,0.00,WUHU216HW,2013-06-24 06:06:00,
2013-06-24 02:11:00,72.4,64.4,30.00,SW,225,0.7,2.2,76,0.00,,,0.00,WUHU216HW,2013-06-24 06:11:00,
2013-06-24 02:15:00,72.4,64.4,30.00,SSW,203,0.9,2.2,76,0.00,,,0.00,WUHU216HW,2013-06-24 06:15:00,
2013-06-24 02:20:00,72.2,63.8,30.00,SW,225,1.3,1.6,75,0.00,,,0.00,WUHU216HW,2013-06-24 06:20:00,
2013-06-24 02:25:00,72.2,63.8,30.00,SW,225,1.6,1.8,75,0.00,,,0.00,WUHU216HW,2013-06-24 06:25:00,
2013-06-24 02:31:00,72.0,63.6,30.00,SW,225,0.9,1.8,75,0.00,,,0.00,WUHU216HW,2013-06-24 06:31:00,
2013-06-24 02:36:00,71.8,63.5,30.00,WSW,248,0.0,1.8,75,0.00,,,0.00,WUHU216HW,2013-06-24 06:36:00,
2013-06-24 02:41:00,71.8,63.5,30.00,ESE,113,0.4,1.8,75,0.00,,,0.00,WUHU216HW,2013-06-24 06:41:00,
2013-06-24 02:46:00,71.6,63.3,30.00,ESE,113,0.2,0.7,75,0.00,,,0.00,WUHU216HW,2013-06-24 06:46:00,
2013-06-24 02:51:00,71.6,63.3,30.00,ESE,113,0.0,0.7,75,0.00,,,0.00,WUHU216HW,2013-06-24 06:51:00,
2013-06-24 02:56:00,71.5,63.1,30.00,ESE,113,0.0,0.4,75,0.00,,,0.00,WUHU216HW,2013-06-24 06:56:00,
2013-06-24 03:01:00,71.3,62.9,30.00,ESE,113,0.0,0.4,75,0.00,,,0.00,WUHU216HW,2013-06-24 07:01:00,
2013-06-24 03:06:00,70.9,62.6,30.01,ESE,113,0.0,0.0,75,0.00,,,0.00,WUHU216HW,2013-06-24 07:06:00,
2013-06-24 03:11:00,70.7,62.4,30.01,ESE,113,0.0,0.0,75,0.00,,,0.00,WUHU216HW,2013-06-24 07:11:00,
2013-06-24 03:17:00,70.6,62.2,30.01,ESE,113,0.0,0.0,75,0.00,,,0.00,WUHU216HW,2013-06-24 07:17:00,
2013-06-24 03:22:00,70.4,62.4,30.01,ESE,113,0.0,0.0,76,0.00,,,0.00,WUHU216HW,2013-06-24 07:22:00,
2013-06-24 03:26:00,70.2,62.2,30.01,ESE,113,0.0,0.0,76,0.00,,,0.00,WUHU216HW,2013-06-24 07:26:00,
2013-06-24 03:31:00,69.8,61.8,30.01,ESE,113,0.0,0.0,76,0.00,,,0.00,WUHU216HW,2013-06-24 07:31:00,
2013-06-24 03:37:00,69.8,62.2,30.01,ESE,113,0.0,0.0,77,0.00,,,0.00,WUHU216HW,2013-06-24 07:37:00,
2013-06-24 03:42:00,69.5,61.9,30.01,ESE,113,0.0,0.0,77,0.00,,,0.00,WUHU216HW,2013-06-24 07:42:00,
2013-06-24 03:47:00,69.5,61.9,30.01,ESE,113,0.0,0.0,77,0.00,,,0.00,WUHU216HW,2013-06-24 07:47:00,
2013-06-24 03:52:00,69.3,61.7,30.01,ESE,113,0.0,0.0,77,0.00,,,0.00,WUHU216HW,2013-06-24 07:52:00,
2013-06-24 03:57:00,69.1,61.6,30.01,ESE,113,0.0,0.0,77,0.00,,,0.00,WUHU216HW,2013-06-24 07:57:00,
2013-06-24 04:02:00,68.9,61.8,30.01,ESE,113,0.0,0.0,78,0.00,,,0.00,WUHU216HW,2013-06-24 08:02:00,
2013-06-24 04:07:00,68.8,61.7,30.01,ESE,113,0.0,0.0,78,0.00,,,0.00,WUHU216HW,2013-06-24 08:07:00,
2013-06-24 04:13:00,68.8,61.7,30.01,SE,135,0.4,1.1,78,0.00,,,0.00,WUHU216HW,2013-06-24 08:13:00,
2013-06-24 04:18:00,68.4,61.3,30.01,SE,135,0.4,1.1,78,0.00,,,0.00,WUHU216HW,2013-06-24 08:18:00,
2013-06-24 04:23:00,68.4,61.7,30.01,SE,135,0.4,0.9,79,0.00,,,0.00,WUHU216HW,2013-06-24 08:23:00,
2013-06-24 04:28:00,68.2,61.6,30.01,SE,135,0.4,1.1,79,0.00,,,0.00,WUHU216HW,2013-06-24 08:28:00,
2013-06-24 04:33:00,68.0,61.7,30.00,SE,135,0.7,1.1,80,0.00,,,0.00,WUHU216HW,2013-06-24 08:33:00,
2013-06-24 04:38:00,67.9,61.6,30.00,SE,135,0.0,1.1,80,0.00,,,0.00,WUHU216HW,2013-06-24 08:38:00,
2013-06-24 04:43:00,67.7,61.4,30.00,SE,135,0.7,1.1,80,0.00,,,0.00,WUHU216HW,2013-06-24 08:43:00,
2013-06-24 04:48:00,67.5,61.2,30.00,ESE,113,0.0,1.1,80,0.00,,,0.00,WUHU216HW,2013-06-24 08:48:00,
2013-06-24 04:54:00,67.3,61.0,30.00,ESE,113,0.0,1.1,80,0.00,,,0.00,WUHU216HW,2013-06-24 08:54:00,
2013-06-24 04:59:00,67.3,61.0,29.99,ESE,113,0.0,0.0,80,0.00,,,0.00,WUHU216HW,2013-06-24 08:59:00,
2013-06-24 05:04:00,67.1,60.8,30.00,ESE,113,0.0,0.0,80,0.00,,,0.00,WUHU216HW,2013-06-24 09:04:00,
2013-06-24 05:09:00,67.0,60.7,30.00,ESE,113,0.0,0.0,80,0.00,,,0.00,WUHU216HW,2013-06-24 09:09:00,
2013-06-24 05:14:00,67.0,60.7,30.00,ESE,113,0.0,0.0,80,0.00,,,0.00,WUHU216HW,2013-06-24 09:14:00,
2013-06-24 05:19:00,66.8,60.5,30.00,ESE,113,0.0,0.0,80,0.00,,,0.00,WUHU216HW,2013-06-24 09:19:00,
2013-06-24 05:25:00,66.6,60.7,30.00,ESE,113,0.0,0.2,81,0.00,,,0.00,WUHU216HW,2013-06-24 09:25:00,
2013-06-24 05:30:00,66.6,60.7,29.99,ESE,113,0.7,1.1,81,0.00,,,0.00,WUHU216HW,2013-06-24 09:30:00,
2013-06-24 05:35:00,66.4,60.8,29.99,SE,135,1.1,1.1,82,0.00,,,0.00,WUHU216HW,2013-06-24 09:35:00,
2013-06-24 05:41:00,66.2,60.6,29.99,SE,135,1.1,1.3,82,0.00,,,0.00,WUHU216HW,2013-06-24 09:41:00,
2013-06-24 05:46:00,66.2,60.9,29.99,SE,135,0.9,1.3,83,0.00,,,0.00,WUHU216HW,2013-06-24 09:46:00,
2013-06-24 05:51:00,66.2,60.9,30.00,SE,135,0.4,1.1,83,0.00,,,0.00,WUHU216HW,2013-06-24 09:51:00,
2013-06-24 05:56:00,66.2,60.9,29.99,SE,135,0.7,1.3,83,0.00,,,0.00,WUHU216HW,2013-06-24 09:56:00,
2013-06-24 06:01:00,66.2,60.9,29.99,ESE,113,0.9,1.3,83,0.00,,,0.00,WUHU216HW,2013-06-24 10:01:00,
2013-06-24 06:06:00,66.2,60.9,29.99,ESE,113,0.0,1.6,83,0.00,,,0.00,WUHU216HW,2013-06-24 10:06:00,
2013-06-24 06:11:00,66.2,60.9,29.99,ESE,113,0.0,1.6,83,0.00,,,0.00,WUHU216HW,2013-06-24 10:11:00,
2013-06-24 06:16:00,66.2,60.9,29.99,ESE,113,0.7,0.7,83,0.00,,,0.00,WUHU216HW,2013-06-24 10:16:00,
2013-06-24 06:21:00,66.2,60.9,29.99,ESE,113,1.1,1.1,83,0.00,,,0.00,WUHU216HW,2013-06-24 10:21:00,
2013-06-24 06:26:00,66.1,60.8,30.00,South,180,0.0,1.1,83,0.00,,,0.00,WUHU216HW,2013-06-24 10:26:00,
2013-06-24 06:31:00,66.2,60.9,30.00,SSE,158,0.0,1.1,83,0.00,,,0.00,WUHU216HW,2013-06-24 10:31:00,
2013-06-24 06:36:00,66.2,60.9,30.00,SSE,158,0.7,0.9,83,0.00,,,0.00,WUHU216HW,2013-06-24 10:36:00,
2013-06-24 06:41:00,66.2,60.9,30.00,SSW,203,1.8,1.8,83,0.00,,,0.00,WUHU216HW,2013-06-24 10:41:00,
2013-06-24 06:46:00,66.2,61.2,30.00,SSW,203,1.6,2.2,84,0.00,,,0.00,WUHU216HW,2013-06-24 10:46:00,
2013-06-24 06:51:00,66.4,61.4,29.99,South,180,0.7,2.9,84,0.00,,,0.00,WUHU216HW,2013-06-24 10:51:00,
2013-06-24 06:56:00,66.6,61.6,30.00,South,180,0.0,2.9,84,0.00,,,0.00,WUHU216HW,2013-06-24 10:56:00,
2013-06-24 07:01:00,66.8,61.7,30.00,SSE,158,0.9,1.6,84,0.00,,,0.00,WUHU216HW,2013-06-24 11:01:00,
2013-06-24 07:06:00,67.0,61.9,29.99,South,180,1.3,3.4,84,0.00,,,0.00,WUHU216HW,2013-06-24 11:06:00,
2013-06-24 07:12:00,67.1,62.1,30.00,South,180,1.3,3.4,84,0.00,,,0.00,WUHU216HW,2013-06-24 11:12:00,
2013-06-24 07:17:00,67.3,62.3,30.00,SSW,203,1.6,2.0,84,0.00,,,0.00,WUHU216HW,2013-06-24 11:17:00,
2013-06-24 07:22:00,67.5,62.5,30.00,West,270,1.1,2.0,84,0.00,,,0.00,WUHU216HW,2013-06-24 11:22:00,
2013-06-24 07:27:00,67.7,62.6,30.01,WSW,248,2.5,2.5,84,0.00,,,0.00,WUHU216HW,2013-06-24 11:27:00,
2013-06-24 07:33:00,68.0,63.0,30.01,WSW,248,0.0,2.5,84,0.00,,,0.00,WUHU216HW,2013-06-24 11:33:00,
2013-06-24 07:37:00,68.2,63.2,30.01,WSW,248,2.5,2.9,84,0.00,,,0.00,WUHU216HW,2013-06-24 11:37:00,
2013-06-24 07:43:00,68.6,63.5,30.01,WSW,248,4.0,4.0,84,0.00,,,0.00,WUHU216HW,2013-06-24 11:43:00,
2013-06-24 07:48:00,68.9,63.9,30.01,WSW,248,1.1,4.0,84,0.00,,,0.00,WUHU216HW,2013-06-24 11:48:00,
2013-06-24 07:53:00,69.1,64.1,30.02,SW,225,0.7,2.2,84,0.00,,,0.00,WUHU216HW,2013-06-24 11:53:00,
2013-06-24 07:58:00,69.5,64.4,30.02,SW,225,1.8,1.8,84,0.00,,,0.00,WUHU216HW,2013-06-24 11:58:00,
2013-06-24 08:03:00,70.0,64.9,30.02,SSW,203,0.9,1.8,84,0.00,,,0.00,WUHU216HW,2013-06-24 12:03:00,
2013-06-24 08:09:00,70.4,65.3,30.02,WSW,248,0.4,2.0,84,0.00,,,0.00,WUHU216HW,2013-06-24 12:09:00,
2013-06-24 08:14:00,70.9,65.8,30.02,SSW,203,1.1,2.0,84,0.00,,,0.00,WUHU216HW,2013-06-24 12:14:00,
2013-06-24 08:19:00,71.3,66.2,30.02,South,180,1.1,1.8,84,0.00,,,0.00,WUHU216HW,2013-06-24 12:19:00,
2013-06-24 08:24:00,72.0,66.9,30.02,SW,225,2.2,2.5,84,0.00,,,0.00,WUHU216HW,2013-06-24 12:24:00,
2013-06-24 08:29:00,72.7,67.6,30.02,WSW,248,2.5,2.5,84,0.00,,,0.00,WUHU216HW,2013-06-24 12:29:00,
2013-06-24 08:35:00,73.6,68.1,30.02,West,270,2.9,4.0,83,0.00,,,0.00,WUHU216HW,2013-06-24 12:35:00,
2013-06-24 08:40:00,74.5,68.8,30.02,West,270,4.3,5.4,82,0.00,,,0.00,WUHU216HW,2013-06-24 12:40:00,
2013-06-24 08:46:00,75.4,69.3,30.02,WSW,248,4.3,5.4,81,0.00,,,0.00,WUHU216HW,2013-06-24 12:46:00,
2013-06-24 08:51:00,76.1,69.6,30.02,SSW,203,3.4,4.3,80,0.00,,,0.00,WUHU216HW,2013-06-24 12:51:00,
2013-06-24 08:56:00,76.7,69.7,30.02,WSW,248,2.5,4.0,79,0.00,,,0.00,WUHU216HW,2013-06-24 12:56:00,
2013-06-24 09:01:00,77.2,69.9,30.02,SW,225,2.5,5.8,78,0.00,,,0.00,WUHU216HW,2013-06-24 13:01:00,
2013-06-24 09:06:00,77.8,69.6,30.02,WSW,248,6.3,6.3,76,0.00,,,0.00,WUHU216HW,2013-06-24 13:06:00,
2013-06-24 09:11:00,78.1,69.9,30.02,WSW,248,2.7,6.3,76,0.00,,,0.00,WUHU216HW,2013-06-24 13:11:00,
2013-06-24 09:16:00,78.7,70.0,30.02,SW,225,5.1,5.1,75,0.00,,,0.00,WUHU216HW,2013-06-24 13:16:00,
2013-06-24 09:21:00,78.8,70.2,30.03,WSW,248,3.1,5.1,75,0.00,,,0.00,WUHU216HW,2013-06-24 13:21:00,
2013-06-24 09:26:00,79.2,70.6,30.02,SW,225,1.8,5.1,75,0.00,,,0.00,WUHU216HW,2013-06-24 13:26:00,
2013-06-24 09:32:00,79.4,70.4,30.03,SSW,203,3.8,3.8,74,0.00,,,0.00,WUHU216HW,2013-06-24 13:32:00,
2013-06-24 09:37:00,79.4,69.9,30.03,WSW,248,6.0,6.0,73,0.00,,,0.00,WUHU216HW,2013-06-24 13:37:00,
2013-06-24 09:42:00,79.2,69.8,30.03,WNW,293,5.1,6.3,73,0.00,,,0.00,WUHU216HW,2013-06-24 13:42:00,
2013-06-24 09:47:00,79.0,69.6,30.02,West,270,4.7,6.3,73,0.00,,,0.00,WUHU216HW,2013-06-24 13:47:00,
2013-06-24 09:52:00,79.4,70.4,30.02,SSW,203,2.5,4.7,74,0.00,,,0.00,WUHU216HW,2013-06-24 13:52:00,
2013-06-24 09:58:00,79.9,70.9,30.02,WSW,248,3.1,4.7,74,0.00,,,0.00,WUHU216HW,2013-06-24 13:58:00,
2013-06-24 10:03:00,80.5,71.0,30.02,SW,225,3.1,6.9,73,0.00,,,0.00,WUHU216HW,2013-06-24 14:03:00,
2013-06-24 10:08:00,81.0,70.7,30.02,SW,225,3.6,6.9,71,0.00,,,0.00,WUHU216HW,2013-06-24 14:08:00,
2013-06-24 10:13:00,81.2,70.9,30.02,SW,225,2.5,6.5,71,0.00,,,0.00,WUHU216HW,2013-06-24 14:13:00,
2013-06-24 10:18:00,81.5,71.3,30.02,WSW,248,5.1,6.5,71,0.00,,,0.00,WUHU216HW,2013-06-24 14:18:00,
2013-06-24 10:23:00,82.1,72.2,30.02,SSW,203,2.7,5.8,72,0.00,,,0.00,WUHU216HW,2013-06-24 14:23:00,
2013-06-24 10:28:00,82.4,71.6,30.02,SW,225,4.0,5.8,70,0.00,,,0.00,WUHU216HW,2013-06-24 14:28:00,
2013-06-24 10:34:00,82.8,72.0,30.02,South,180,3.4,8.5,70,0.00,,,0.00,WUHU216HW,2013-06-24 14:34:00,
2013-06-24 10:39:00,83.0,72.2,30.02,South,180,2.9,8.5,70,0.00,,,0.00,WUHU216HW,2013-06-24 14:39:00,
2013-06-24 10:44:00,83.7,72.9,30.01,WSW,248,3.4,5.8,70,0.00,,,0.00,WUHU216HW,2013-06-24 14:44:00,
2013-06-24 10:49:00,84.2,73.0,30.01,SSE,158,4.9,5.8,69,0.00,,,0.00,WUHU216HW,2013-06-24 14:49:00,
2013-06-24 10:55:00,84.6,72.5,30.01,SW,225,4.0,5.4,67,0.00,,,0.00,WUHU216HW,2013-06-24 14:55:00,
2013-06-24 11:00:00,84.2,71.6,30.02,SSW,203,3.4,7.8,66,0.00,,,0.00,WUHU216HW,2013-06-24 15:00:00,
2013-06-24 11:05:00,84.2,72.1,30.01,SW,225,4.3,7.8,67,0.00,,,0.00,WUHU216HW,2013-06-24 15:05:00,
2013-06-24 11:09:00,84.4,71.4,30.01,SSW,203,4.0,6.5,65,0.00,,,0.00,WUHU216HW,2013-06-24 15:09:00,
2013-06-24 11:14:00,84.4,71.8,30.01,SSW,203,3.8,6.5,66,0.00,,,0.00,WUHU216HW,2013-06-24 15:14:00,
2013-06-24 11:20:00,84.4,71.8,30.01,SW,225,3.4,6.9,66,0.00,,,0.00,WUHU216HW,2013-06-24 15:20:00,
2013-06-24 11:25:00,84.4,71.8,30.01,SSW,203,4.9,6.9,66,0.00,,,0.00,WUHU216HW,2013-06-24 15:25:00,
2013-06-24 11:30:00,84.6,72.0,30.01,SSW,203,2.5,6.3,66,0.00,,,0.00,WUHU216HW,2013-06-24 15:30:00,
2013-06-24 11:35:00,84.8,72.2,30.01,SSE,158,2.5,6.3,66,0.00,,,0.00,WUHU216HW,2013-06-24 15:35:00,
2013-06-24 11:40:00,85.1,72.6,30.01,SW,225,3.6,5.4,66,0.00,,,0.00,WUHU216HW,2013-06-24 15:40:00,
2013-06-24 11:45:00,85.1,72.0,30.01,SW,225,3.6,5.4,65,0.00,,,0.00,WUHU216HW,2013-06-24 15:45:00,
2013-06-24 11:51:00,84.6,71.1,30.02,SSW,203,2.7,6.3,64,0.00,,,0.00,WUHU216HW,2013-06-24 15:51:00,
2013-06-24 11:56:00,84.2,70.7,30.02,West,270,6.5,6.5,64,0.00,,,0.00,WUHU216HW,2013-06-24 15:56:00,
2013-06-24 12:01:00,83.9,70.4,30.02,SSW,203,4.0,6.7,64,0.00,,,0.00,WUHU216HW,2013-06-24 16:01:00,
2013-06-24 12:06:00,83.7,71.1,30.01,SW,225,4.5,6.7,66,0.00,,,0.00,WUHU216HW,2013-06-24 16:06:00,
2013-06-24 12:11:00,83.9,70.8,30.01,SSW,203,3.6,5.4,65,0.00,,,0.00,WUHU216HW,2013-06-24 16:11:00,
2013-06-24 12:16:00,83.5,70.0,30.01,SW,225,3.4,7.6,64,0.00,,,0.00,WUHU216HW,2013-06-24 16:16:00,
2013-06-24 12:22:00,83.7,71.1,30.01,SW,225,2.7,8.3,66,0.00,,,0.00,WUHU216HW,2013-06-24 16:22:00,
2013-06-24 12:27:00,84.1,71.5,30.01,SW,225,1.6,8.3,66,0.00,,,0.00,WUHU216HW,2013-06-24 16:27:00,
2013-06-24 12:32:00,84.6,71.6,30.01,WSW,248,1.8,7.4,65,0.00,,,0.00,WUHU216HW,2013-06-24 16:32:00,
2013-06-24 12:37:00,84.4,70.9,30.01,SSW,203,6.3,8.7,64,0.00,,,0.00,WUHU216HW,2013-06-24 16:37:00,
2013-06-24 12:42:00,84.1,70.6,30.01,SSW,203,3.8,9.6,64,0.00,,,0.00,WUHU216HW,2013-06-24 16:42:00,
2013-06-24 12:47:00,83.9,70.8,30.01,West,270,4.0,9.6,65,0.00,,,0.00,WUHU216HW,2013-06-24 16:47:00,
2013-06-24 12:52:00,83.9,71.3,30.01,WSW,248,2.5,7.8,66,0.00,,,0.00,WUHU216HW,2013-06-24 16:52:00,
2013-06-24 12:57:00,84.2,71.6,30.01,WNW,293,1.8,6.5,66,0.00,,,0.00,WUHU216HW,2013-06-24 16:57:00,
2013-06-24 13:02:00,84.2,71.2,30.01,WSW,248,3.8,7.4,65,0.00,,,0.00,WUHU216HW,2013-06-24 17:02:00,
2013-06-24 13:07:00,84.2,71.2,30.01,WSW,248,4.0,7.4,65,0.00,,,0.00,WUHU216HW,2013-06-24 17:07:00,
2013-06-24 13:13:00,84.2,71.2,30.01,WSW,248,6.5,7.8,65,0.00,,,0.00,WUHU216HW,2013-06-24 17:13:00,
2013-06-24 13:18:00,84.4,71.4,30.01,WSW,248,2.7,7.8,65,0.00,,,0.00,WUHU216HW,2013-06-24 17:18:00,
2013-06-24 13:24:00,84.6,71.1,30.00,SW,225,4.0,8.3,64,0.00,,,0.00,WUHU216HW,2013-06-24 17:24:00,
2013-06-24 13:29:00,84.6,71.1,30.00,WSW,248,2.5,8.3,64,0.00,,,0.00,WUHU216HW,2013-06-24 17:29:00,
2013-06-24 13:34:00,85.0,71.5,30.00,WNW,293,2.0,7.2,64,0.00,,,0.00,WUHU216HW,2013-06-24 17:34:00,
2013-06-24 13:39:00,85.5,71.5,30.00,West,270,1.8,8.5,63,0.00,,,0.00,WUHU216HW,2013-06-24 17:39:00,
2013-06-24 13:44:00,85.5,71.0,30.00,SW,225,1.8,8.5,62,0.00,,,0.00,WUHU216HW,2013-06-24 17:44:00,
2013-06-24 13:49:00,85.3,70.8,29.99,WNW,293,2.9,8.1,62,0.00,,,0.00,WUHU216HW,2013-06-24 17:49:00,
2013-06-24 13:54:00,85.3,70.8,29.99,WNW,293,1.8,9.6,62,0.00,,,0.00,WUHU216HW,2013-06-24 17:54:00,
2013-06-24 13:59:00,85.3,70.4,29.99,SW,225,4.5,9.6,61,0.00,,,0.00,WUHU216HW,2013-06-24 17:59:00,
2013-06-24 14:04:00,85.3,70.8,29.98,WSW,248,2.5,8.3,62,0.00,,,0.00,WUHU216HW,2013-06-24 18:04:00,
2013-06-24 14:09:00,85.5,71.0,29.98,WSW,248,3.1,8.3,62,0.00,,,0.00,WUHU216HW,2013-06-24 18:09:00,
2013-06-24 14:14:00,85.7,71.2,29.98,West,270,2.5,5.1,62,0.00,,,0.00,WUHU216HW,2013-06-24 18:14:00,
2013-06-24 14:19:00,85.9,71.4,29.98,WSW,248,2.0,4.9,62,0.00,,,0.00,WUHU216HW,2013-06-24 18:19:00,
2013-06-24 14:24:00,86.2,71.6,29.98,West,270,7.2,7.4,62,0.00,,,0.00,WUHU216HW,2013-06-24 18:24:00,
2013-06-24 14:30:00,86.2,71.6,29.97,SW,225,2.5,7.4,62,0.00,,,0.00,WUHU216HW,2013-06-24 18:30:00,
2013-06-24 14:35:00,86.2,70.7,29.97,WSW,248,6.5,6.5,60,0.00,,,0.00,WUHU216HW,2013-06-24 18:35:00,
2013-06-24 14:40:00,85.9,70.8,29.97,West,270,2.5,7.4,61,0.00,,,0.00,WUHU216HW,2013-06-24 18:40:00,
2013-06-24 14:46:00,85.7,69.8,29.97,SW,225,4.0,7.4,59,0.00,,,0.00,WUHU216HW,2013-06-24 18:46:00,
2013-06-24 14:51:00,85.5,70.1,29.96,WSW,248,4.7,7.4,60,0.00,,,0.00,WUHU216HW,2013-06-24 18:51:00,
2013-06-24 14:56:00,85.1,69.8,29.96,SW,225,3.6,6.9,60,0.00,,,0.00,WUHU216HW,2013-06-24 18:56:00,
2013-06-24 15:01:00,85.1,70.2,29.96,WSW,248,2.9,5.6,61,0.00,,,0.00,WUHU216HW,2013-06-24 19:01:00,
2013-06-24 15:06:00,85.3,70.4,29.95,South,180,1.1,5.1,61,0.00,,,0.00,WUHU216HW,2013-06-24 19:06:00,
2013-06-24 15:11:00,85.3,70.4,29.95,SW,225,1.6,3.8,61,0.00,,,0.00,WUHU216HW,2013-06-24 19:11:00,
2013-06-24 15:17:00,85.3,69.9,29.95,WSW,248,3.6,7.2,60,0.00,,,0.00,WUHU216HW,2013-06-24 19:17:00,
2013-06-24 15:22:00,85.5,70.1,29.95,SW,225,2.2,7.2,60,0.00,,,0.00,WUHU216HW,2013-06-24 19:22:00,
2013-06-24 15:27:00,85.5,70.1,29.94,SW,225,1.1,6.9,60,0.00,,,0.00,WUHU216HW,2013-06-24 19:27:00,
2013-06-24 15:32:00,85.7,70.2,29.94,SW,225,2.2,5.6,60,0.00,,,0.00,WUHU216HW,2013-06-24 19:32:00,
2013-06-24 15:37:00,85.5,70.1,29.94,WSW,248,1.6,3.4,60,0.00,,,0.00,WUHU216HW,2013-06-24 19:37:00,
2013-06-24 15:42:00,85.5,70.1,29.94,WSW,248,4.3,4.3,60,0.00,,,0.00,WUHU216HW,2013-06-24 19:42:00,
2013-06-24 15:47:00,85.7,70.2,29.94,NNW,338,1.8,4.3,60,0.00,,,0.00,WUHU216HW,2013-06-24 19:47:00,
2013-06-24 15:52:00,85.7,70.2,29.94,NNW,338,3.4,4.5,60,0.00,,,0.00,WUHU216HW,2013-06-24 19:52:00,
2013-06-24 15:57:00,85.7,70.2,29.94,NNE,23,3.4,4.5,60,0.00,,,0.00,WUHU216HW,2013-06-24 19:57:00,
2013-06-24 16:02:00,85.7,70.2,29.94,WSW,248,4.7,5.6,60,0.00,,,0.00,WUHU216HW,2013-06-24 20:02:00,
2013-06-24 16:07:00,85.5,70.1,29.94,SW,225,1.3,5.6,60,0.00,,,0.00,WUHU216HW,2013-06-24 20:07:00,
2013-06-24 16:12:00,85.7,70.2,29.94,WSW,248,0.7,4.7,60,0.00,,,0.00,WUHU216HW,2013-06-24 20:12:00,
2013-06-24 16:17:00,85.7,70.2,29.94,WSW,248,3.4,3.4,60,0.00,,,0.00,WUHU216HW,2013-06-24 20:17:00,
2013-06-24 16:22:00,85.7,70.2,29.93,South,180,2.0,3.4,60,0.00,,,0.00,WUHU216HW,2013-06-24 20:22:00,
2013-06-24 16:27:00,85.7,69.8,29.93,SW,225,0.9,3.1,59,0.00,,,0.00,WUHU216HW,2013-06-24 20:27:00,
2013-06-24 16:33:00,85.3,69.9,29.93,WSW,248,2.5,3.1,60,0.00,,,0.00,WUHU216HW,2013-06-24 20:33:00,
2013-06-24 16:38:00,85.5,70.1,29.93,SW,225,2.5,3.8,60,0.00,,,0.00,WUHU216HW,2013-06-24 20:38:00,
2013-06-24 16:43:00,85.5,70.1,29.93,SSW,203,1.1,3.8,60,0.00,,,0.00,WUHU216HW,2013-06-24 20:43:00,
2013-06-24 16:49:00,85.7,70.2,29.93,WSW,248,1.1,4.0,60,0.00,,,0.00,WUHU216HW,2013-06-24 20:49:00,
2013-06-24 16:54:00,85.9,69.8,29.93,SSE,158,2.0,4.5,59,0.00,,,0.00,WUHU216HW,2013-06-24 20:54:00,
2013-06-24 16:59:00,85.9,69.8,29.92,SW,225,1.1,4.7,59,0.00,,,0.00,WUHU216HW,2013-06-24 20:59:00,
2013-06-24 17:04:00,86.0,70.0,29.92,WSW,248,1.8,4.7,59,0.00,,,0.00,WUHU216HW,2013-06-24 21:04:00,
2013-06-24 17:09:00,86.0,70.0,29.92,NW,315,3.4,4.0,59,0.00,,,0.00,WUHU216HW,2013-06-24 21:09:00,
2013-06-24 17:14:00,86.0,69.5,29.92,SW,225,2.2,3.4,58,0.00,,,0.00,WUHU216HW,2013-06-24 21:14:00,
2013-06-24 17:19:00,86.0,70.0,29.91,SW,225,1.1,3.4,59,0.00,,,0.00,WUHU216HW,2013-06-24 21:19:00,
2013-06-24 17:24:00,86.2,70.2,29.91,WSW,248,1.6,3.4,59,0.00,,,0.00,WUHU216HW,2013-06-24 21:24:00,
2013-06-24 17:29:00,86.4,69.8,29.91,WSW,248,4.0,5.1,58,0.00,,,0.00,WUHU216HW,2013-06-24 21:29:00,
2013-06-24 17:35:00,86.4,69.8,29.91,SSW,203,1.8,5.1,58,0.00,,,0.00,WUHU216HW,2013-06-24 21:35:00,
2013-06-24 17:40:00,86.6,70.0,29.91,SW,225,1.6,4.3,58,0.00,,,0.00,WUHU216HW,2013-06-24 21:40:00,
2013-06-24 17:45:00,86.4,69.8,29.91,SW,225,2.5,4.7,58,0.00,,,0.00,WUHU216HW,2013-06-24 21:45:00,
2013-06-24 17:50:00,86.2,69.7,29.90,SSW,203,1.3,4.7,58,0.00,,,0.00,WUHU216HW,2013-06-24 21:50:00,
2013-06-24 17:55:00,86.0,70.0,29.90,South,180,1.3,3.4,59,0.00,,,0.00,WUHU216HW,2013-06-24 21:55:00,
2013-06-24 18:00:00,85.7,70.2,29.90,SW,225,2.0,3.4,60,0.00,,,0.00,WUHU216HW,2013-06-24 22:00:00,
2013-06-24 18:05:00,85.7,70.2,29.90,SSW,203,0.9,3.6,60,0.00,,,0.00,WUHU216HW,2013-06-24 22:05:00,
2013-06-24 18:10:00,85.5,70.1,29.90,South,180,3.4,3.6,60,0.00,,,0.00,WUHU216HW,2013-06-24 22:10:00,
2013-06-24 18:15:00,85.3,69.9,29.90,SSW,203,2.9,4.0,60,0.00,,,0.00,WUHU216HW,2013-06-24 22:15:00,
2013-06-24 18:20:00,85.0,69.6,29.90,SSW,203,1.8,4.3,60,0.00,,,0.00,WUHU216HW,2013-06-24 22:20:00,
2013-06-24 18:25:00,84.6,69.8,29.90,SW,225,1.6,4.3,61,0.00,,,0.00,WUHU216HW,2013-06-24 22:25:00,
2013-06-24 18:30:00,84.6,69.8,29.90,SW,225,1.1,2.5,61,0.00,,,0.00,WUHU216HW,2013-06-24 22:30:00,
2013-06-24 18:35:00,84.4,69.6,29.91,WSW,248,1.8,3.6,61,0.00,,,0.00,WUHU216HW,2013-06-24 22:35:00,
2013-06-24 18:40:00,84.2,69.4,29.90,SW,225,2.0,3.6,61,0.00,,,0.00,WUHU216HW,2013-06-24 22:40:00,
2013-06-24 18:45:00,84.4,69.6,29.91,WSW,248,0.9,3.4,61,0.00,,,0.00,WUHU216HW,2013-06-24 22:45:00,
2013-06-24 18:50:00,84.4,70.0,29.91,SSW,203,1.3,2.0,62,0.00,,,0.00,WUHU216HW,2013-06-24 22:50:00,
2013-06-24 18:55:00,84.2,69.8,29.91,WSW,248,1.1,2.2,62,0.00,,,0.00,WUHU216HW,2013-06-24 22:55:00,
2013-06-24 19:00:00,84.2,69.8,29.91,SW,225,1.1,2.2,62,0.00,,,0.00,WUHU216HW,2013-06-24 23:00:00,
2013-06-24 19:06:00,84.2,69.8,29.91,WNW,293,0.2,2.5,62,0.00,,,0.00,WUHU216HW,2013-06-24 23:06:00,
2013-06-24 19:11:00,83.9,69.5,29.91,WSW,248,1.8,2.5,62,0.00,,,0.00,WUHU216HW,2013-06-24 23:11:00,
2013-06-24 19:16:00,84.1,70.1,29.91,WSW,248,1.8,2.2,63,0.00,,,0.00,WUHU216HW,2013-06-24 23:16:00,
2013-06-24 19:21:00,83.9,69.9,29.91,WSW,248,2.9,3.8,63,0.00,,,0.00,WUHU216HW,2013-06-24 23:21:00,
2013-06-24 19:26:00,83.9,69.9,29.91,West,270,0.9,3.8,63,0.00,,,0.00,WUHU216HW,2013-06-24 23:26:00,
2013-06-24 19:31:00,83.7,70.2,29.91,NW,315,1.1,3.6,64,0.00,,,0.00,WUHU216HW,2013-06-24 23:31:00,
2013-06-24 19:36:00,83.7,70.2,29.91,NW,315,0.0,1.1,64,0.00,,,0.00,WUHU216HW,2013-06-24 23:36:00,
2013-06-24 19:41:00,83.7,70.7,29.91,NNW,338,0.0,0.7,65,0.00,,,0.00,WUHU216HW,2013-06-24 23:41:00,
2013-06-24 19:46:00,83.7,70.7,29.91,South,180,0.9,0.9,65,0.00,,,0.00,WUHU216HW,2013-06-24 23:46:00,
2013-06-24 19:52:00,83.7,71.1,29.91,SSE,158,4.5,5.8,66,0.00,,,0.00,WUHU216HW,2013-06-24 23:52:00,
2013-06-24 19:57:00,82.3,68.8,29.90,SSW,203,7.6,9.2,64,0.02,,,0.00,WUHU216HW,2013-06-24 23:57:00,
2013-06-24 20:02:00,79.9,67.5,29.90,East,90,3.1,9.2,66,0.02,,,0.02,WUHU216HW,2013-06-25 00:02:00,
2013-06-24 20:07:00,78.7,67.2,29.91,East,90,4.7,8.5,68,0.02,,,0.02,WUHU216HW,2013-06-25 00:07:00,
2013-06-24 20:12:00,77.9,67.0,29.91,NE,45,0.4,4.7,69,0.02,,,0.02,WUHU216HW,2013-06-25 00:12:00,
2013-06-24 20:17:00,77.8,67.2,29.91,NE,45,0.0,3.4,70,0.02,,,0.02,WUHU216HW,2013-06-25 00:17:00,
2013-06-24 20:23:00,77.8,67.6,29.91,NNE,23,0.7,1.8,71,0.04,,,0.04,WUHU216HW,2013-06-25 00:23:00,
2013-06-24 20:28:00,77.2,67.5,29.90,East,90,1.8,2.5,72,0.06,,,0.06,WUHU216HW,2013-06-25 00:28:00,
2013-06-24 20:34:00,76.7,67.4,29.90,East,90,0.2,2.5,73,0.06,,,0.06,WUHU216HW,2013-06-25 00:34:00,
2013-06-24 20:39:00,76.5,67.6,29.90,SSW,203,0.0,1.8,74,0.06,,,0.06,WUHU216HW,2013-06-25 00:39:00,
2013-06-24 20:44:00,76.3,67.4,29.90,WNW,293,0.9,1.6,74,0.06,,,0.06,WUHU216HW,2013-06-25 00:44:00,
2013-06-24 20:49:00,76.1,67.7,29.90,NE,45,0.7,1.1,75,0.06,,,0.06,WUHU216HW,2013-06-25 00:49:00,
2013-06-24 20:54:00,76.1,67.7,29.89,NE,45,0.7,1.1,75,0.06,,,0.06,WUHU216HW,2013-06-25 00:54:00,
2013-06-24 20:59:00,76.0,67.9,29.89,NE,45,0.0,1.1,76,0.04,,,0.06,WUHU216HW,2013-06-25 00:59:00,
2013-06-24 21:04:00,76.0,67.9,29.89,SE,135,0.4,2.5,76,0.04,,,0.06,WUHU216HW,2013-06-25 01:04:00,
2013-06-24 21:09:00,75.8,67.7,29.89,SE,135,0.4,2.5,76,0.04,,,0.06,WUHU216HW,2013-06-25 01:09:00,
2013-06-24 21:15:00,75.4,67.8,29.89,ESE,113,0.4,0.9,77,0.04,,,0.06,WUHU216HW,2013-06-25 01:15:00,
2013-06-24 21:20:00,75.2,67.6,29.89,ESE,113,0.0,0.9,77,0.02,,,0.06,WUHU216HW,2013-06-25 01:20:00,
2013-06-24 21:25:00,75.2,67.6,29.89,ESE,113,0.0,0.2,77,0.01,,,0.06,WUHU216HW,2013-06-25 01:25:00,
2013-06-24 21:30:00,75.1,67.4,29.89,ESE,113,0.0,0.0,77,0.00,,,0.06,WUHU216HW,2013-06-25 01:30:00,
2013-06-24 21:35:00,74.9,67.6,29.89,ESE,113,0.0,0.0,78,0.00,,,0.06,WUHU216HW,2013-06-25 01:35:00,
2013-06-24 21:41:00,74.7,67.4,29.89,ESE,113,0.0,0.0,78,0.00,,,0.06,WUHU216HW,2013-06-25 01:41:00,
2013-06-24 21:46:00,74.5,67.2,29.89,ESE,113,0.0,0.0,78,0.00,,,0.06,WUHU216HW,2013-06-25 01:46:00,
2013-06-24 21:51:00,74.3,67.1,29.89,ESE,113,0.0,0.0,78,0.00,,,0.06,WUHU216HW,2013-06-25 01:51:00,
2013-06-24 21:57:00,74.2,66.9,29.90,ESE,113,0.0,0.0,78,0.00,,,0.06,WUHU216HW,2013-06-25 01:57:00,
2013-06-24 22:02:00,74.0,67.2,29.90,ESE,113,0.0,0.0,79,0.00,,,0.06,WUHU216HW,2013-06-25 02:02:00,
2013-06-24 22:07:00,73.8,67.0,29.90,ESE,113,0.7,1.3,79,0.00,,,0.06,WUHU216HW,2013-06-25 02:07:00,
2013-06-24 22:12:00,73.6,67.1,29.90,SSW,203,0.4,1.3,80,0.00,,,0.06,WUHU216HW,2013-06-25 02:12:00,
2013-06-24 22:18:00,73.4,67.0,29.90,NE,45,0.2,1.1,80,0.00,,,0.06,WUHU216HW,2013-06-25 02:18:00,
2013-06-24 22:23:00,73.3,67.2,29.90,NNW,338,5.1,5.1,81,0.00,,,0.06,WUHU216HW,2013-06-25 02:23:00,
2013-06-24 22:28:00,73.1,67.0,29.91,NNW,338,0.4,5.1,81,0.00,,,0.06,WUHU216HW,2013-06-25 02:28:00,
2013-06-24 22:33:00,72.9,67.4,29.91,North,0,1.1,3.4,83,0.00,,,0.06,WUHU216HW,2013-06-25 02:33:00,
2013-06-24 22:38:00,72.9,67.4,29.91,NNE,23,0.0,2.7,83,0.00,,,0.06,WUHU216HW,2013-06-25 02:38:00,
2013-06-24 22:43:00,72.9,67.4,29.90,NNE,23,0.0,1.6,83,0.00,,,0.06,WUHU216HW,2013-06-25 02:43:00,
2013-06-24 22:48:00,72.9,67.4,29.90,NNE,23,0.0,0.0,83,0.00,,,0.06,WUHU216HW,2013-06-25 02:48:00,
2013-06-24 22:53:00,72.9,67.4,29.90,SE,135,0.0,0.0,83,0.00,,,0.06,WUHU216HW,2013-06-25 02:53:00,
2013-06-24 22:58:00,72.7,67.2,29.89,East,90,0.0,0.0,83,0.00,,,0.06,WUHU216HW,2013-06-25 02:58:00,
2013-06-24 23:03:00,72.7,67.0,29.89,East,90,1.6,1.6,82,0.00,,,0.06,WUHU216HW,2013-06-25 03:03:00,
2013-06-24 23:08:00,72.5,66.8,29.89,SSE,158,0.4,1.6,82,0.00,,,0.06,WUHU216HW,2013-06-25 03:08:00,
2013-06-24 23:13:00,72.5,66.8,29.89,ENE,68,0.9,1.1,82,0.00,,,0.06,WUHU216HW,2013-06-25 03:13:00,
2013-06-24 23:19:00,72.4,66.9,29.89,ESE,113,1.1,1.3,83,0.00,,,0.06,WUHU216HW,2013-06-25 03:19:00,
2013-06-24 23:24:00,72.4,66.9,29.89,ESE,113,0.7,1.3,83,0.00,,,0.06,WUHU216HW,2013-06-25 03:24:00,
2013-06-24 23:30:00,72.4,66.9,29.89,SE,135,1.6,1.6,83,0.00,,,0.06,WUHU216HW,2013-06-25 03:30:00,
2013-06-24 23:36:00,72.2,66.7,29.89,SE,135,0.4,1.6,83,0.00,,,0.06,WUHU216HW,2013-06-25 03:36:00,
2013-06-24 23:41:00,72.2,66.7,29.89,SSW,203,0.9,1.3,83,0.00,,,0.06,WUHU216HW,2013-06-25 03:41:00,
2013-06-24 23:46:00,72.0,66.9,29.90,SSE,158,1.3,1.3,84,0.00,,,0.06,WUHU216HW,2013-06-25 03:46:00,
2013-06-24 23:51:00,72.0,66.9,29.90,South,180,1.6,2.7,84,0.00,,,0.06,WUHU216HW,2013-06-25 03:51:00,
2013-06-24 23:57:00,72.0,66.9,29.89,SE,135,1.6,3.6,84,0.00,,,0.06,WUHU216HW,2013-06-25 03:57:00,